Clarence, Missouri
Current Conditions -  °F | °C
As of 7:55 AM on Wednesday 26 Nov 2014 (Local Time) from KIRK Reporting Station
Light Snow Light Snow  
Wind Chill: 22°   Ceiling: 900
Heat Index: 30°   Visibility: 4mi
Dew Point: 28°   Wind: 9mph
Humidity: 92%   Direction: 150°SSE
Pressure: 29.93"   Gusts: NA
Location:  39.74°N, 92.26°W
Report Text: KIRK 261355Z AUTO 15008KT 4SM -SN BR OVC009 M01/M02 A2993 RMK AO2 SLP149 P0006 T10111022
Loading
Personal Weather Stations






























Interactive Weather Map New forecast layout! Learn more

10-Day Weather Forecast

Advertisements
Track Severe Weather on mobile